KMHT

Manchester Airport

Manchester, New Hampshire, USA
METAR KMHT 240753Z 00000KT 10SM FEW070 SCT250 13/10 A3001 RMK AO2 SLP173 T01330100
Observed Flight Rules
May-24 @ 07:53 UTC (19 minutes ago) Visual Flight Rules
Visibility Clouds
10 miles
  • Few at 7,000' AGL
  • Scattered at 25,000' AGL
Temperatures Readings
Current 13°C / 55°F
Dewpoint 10°C / 50°F
Humidity 82%
Altimeter 30.01" Hg
Pressure 1017.3 hPa
Elevation 81
METAR KMHT 240753Z 00000KT 10SM FEW070 SCT250 13/10 A3001 RMK AO2 SLP173 T01330100
Observed Flight Rules
May-24 @ 07:53 UTC
(19 minutes ago)
VFR
Clouds
  • Few at 7,000' AGL
  • Scattered at 25,000' AGL
Temperature Dewpoint
13°C / 55°F 10°C / 50°F
Humidity Altimeter Pressure
82% 30.01" Hg 1017.3 hPa